Brisbane, Queensland

3:58 PM AEST on August 05, 2015 (GMT +1000)
Wavell Heights | | Change Station
CLOSE
Current Station
Personal Weather Station
Location: Wavell Heights, QUEENSLAND
Elevation: 39 ft
Nearby Weather Stations

Elev 39 ft 27.38 °S, 153.05 °E | Updated 19 seconds ago

Clear
Clear
67.5 °F
Feels Like 67.5 °F
N
5.8
Wind Variable Wind from NW
Gusts 7.4 mph

Today
High -- | Low -- °F
--% Chance of Precip.
Yesterday
High -- | Low -- °F
Precip. -- in
6:26 AM 5:21 PM
Waning Gibbous, 70% visible
Pressure 29.92 in
Visibility -9999.0 miles
Clouds
Dew Point 49 °F
Humidity 51%
Rainfall 0.00 in
Snow Depth Not available.
UV 0.0 out of 12
Pollen Not available.
Air Quality Not available.
Flu Activity Not available.
METAR YBBN 050530Z 26015KT CAVOK 18/M05 Q1013

More Conditions Fewer Conditions

Pressure 29.92 in
Visibility -9999.0 miles
Clouds
Dew Point 49 °F
Humidity 51%
Rainfall 0.00 in
Snow Depth Not available.
UV 0.0 out of 12
Pollen Not available.
Air Quality Not available.
Flu Activity Not available.
METAR YBBN 050530Z 26015KT CAVOK 18/M05 Q1013

More Conditions Fewer Conditions

10-Day Weather Forecast

×

Almanac

Astronomy

Aug. 05, 2015 Rise Set
Actual Time
Civil Twilight
Nautical Twilight
Astronomical Twilight
Moon
Length of Visible Light
Length of Day
Tomorrow will be .
, % of the Moon is Illuminated

Today's Extremes

Country Highs Country Lows

Community

WunderPhotos

Upload Photos

1,844,098 photos uploaded!

WunderBlogs® & News

Nearby

Air Quality

  Air Quality AQ Index Pollutant
Not available.

Snow Depth

Station Depth Elevation

Earthquake Activity

City Distance Mag. Time & Date
Minimum magnitude displayed is 2.5.

Coastal Water Temperatures

Place Temperature

Stations

Nearby Weather Stations

Station Location Temp. Windchill Dew Point Humidity Wind Precip. Elev Updated Type